Terminal Aerodrome Forecast
Issued by NWS

Home | Current Version | Previous Version | Text Only | Print | Product List | Glossary On
Versions: 1 2 3 4 5 6 7 8 9 10 11 12 13 14 15 16 17 18
000
FTUS42 KTBW 262300 RRA
TAFPGD
TAF
KPGD 262343Z 2700/2724 05005KT P6SM VCSH OVC025
     FM270400 05004KT P6SM VCSH SCT005 OVC015
      TEMPO 2708/2712 2SM -DZ BR OVC005
     FM271200 06003KT 3SM BR BKN005 OVC015
     FM271600 10004KT P6SM SCT005 OVC015
     FM271900 16006KT P6SM BKN025 OVC050=

USA.gov is the U.S. government's official web portal to all federal, state and local government web resources and services.